Terminal Aerodrome Forecast
Issued by NWS Green Bay, WI

Home | Current Version | Previous Version | Text Only | Print | Product List | Glossary Off
Versions: 1 2 3 4 5 6 7 8 9 10 11 12 13 14 15 16 17 18 19 20 21 22 23 24 25 26 27 28 29

000
FTUS43 KGRB 041200 AAA
TAFGRB
TAF AMD
KGRB 041238Z 0413/0512 32006KT P6SM SCT070 BKN200
     FM041500 03010G16KT P6SM SCT060 SCT200
     FM042100 06007KT P6SM SCT100 BKN250
     FM050900 04004KT P6SM BKN100 OVC200=

USA.gov is the U.S. government's official web portal to all federal, state and local government web resources and services.